createdAt,value
2017-10-27T00:01:53.729Z,34.90
2017-10-27T00:04:21.178Z,38.63
2017-10-27T00:06:48.699Z,42.03
2017-10-27T00:09:16.159Z,41.13
2017-10-27T00:11:44.319Z,41.60
2017-10-27T00:14:11.779Z,38.70
2017-10-27T00:16:39.375Z,40.58
2017-10-27T00:19:06.878Z,39.10
2017-10-27T00:21:34.468Z,40.72
2017-10-27T00:24:02.790Z,35.53
2017-10-27T00:26:30.352Z,41.00
2017-10-27T00:29:02.574Z,38.50
2017-10-27T00:31:30.059Z,36.47
2017-10-27T00:33:57.538Z,36.22
2017-10-27T00:36:25.023Z,37.40
2017-10-27T00:38:53.251Z,33.78
2017-10-27T00:41:20.773Z,37.67
2017-10-27T00:43:52.219Z,47.13
2017-10-27T00:46:19.670Z,35.77
2017-10-27T00:48:47.544Z,32.53
2017-10-27T00:51:15.495Z,39.20
2017-10-27T00:53:42.971Z,36.60
2017-10-27T00:56:10.470Z,38.27
2017-10-27T00:58:37.915Z,36.93
2017-10-27T01:01:05.586Z,33.67
2017-10-27T01:03:33.067Z,38.07
2017-10-27T01:06:00.542Z,38.70
2017-10-27T01:08:28.331Z,47.23
2017-10-27T01:10:56.312Z,40.33
2017-10-27T01:13:23.779Z,42.17
2017-10-27T01:15:55.306Z,49.83
2017-10-27T01:18:22.795Z,43.13
2017-10-27T01:20:50.282Z,48.17
2017-10-27T01:23:17.799Z,40.22
2017-10-27T01:25:46.979Z,42.42
2017-10-27T01:28:15.064Z,42.57
2017-10-27T01:30:42.822Z,45.37
2017-10-27T01:33:11.482Z,50.17
2017-10-27T01:35:39.343Z,48.30
2017-10-27T01:38:06.818Z,47.67
2017-10-27T01:40:34.271Z,44.03
2017-10-27T01:43:01.947Z,42.25
2017-10-27T01:45:30.182Z,43.97
2017-10-27T01:47:57.648Z,41.70
2017-10-27T01:50:25.099Z,48.20
2017-10-27T01:52:52.603Z,51.20
2017-10-27T01:55:20.069Z,50.70
2017-10-27T01:57:47.602Z,53.30
2017-10-27T02:00:15.088Z,48.83
2017-10-27T02:02:44.359Z,49.10
2017-10-27T02:05:11.814Z,51.17
2017-10-27T02:07:40.796Z,49.70
2017-10-27T02:10:08.529Z,51.23
2017-10-27T02:12:35.979Z,48.43
2017-10-27T02:15:03.460Z,46.40
2017-10-27T02:17:30.948Z,50.87
2017-10-27T02:19:58.471Z,54.10
2017-10-27T02:22:26.019Z,54.42
2017-10-27T02:24:53.513Z,48.50
2017-10-27T02:27:21.892Z,42.90
2017-10-27T02:29:49.366Z,45.63
2017-10-27T02:32:19.723Z,45.28
2017-10-27T02:34:47.210Z,45.07
2017-10-27T02:37:14.907Z,55.20
2017-10-27T02:39:42.621Z,51.03
2017-10-27T02:42:10.119Z,41.90
2017-10-27T02:44:37.641Z,45.13
2017-10-27T02:47:05.771Z,41.00
2017-10-27T02:49:34.025Z,41.53
2017-10-27T02:52:01.732Z,46.08
2017-10-27T02:54:30.877Z,55.33
2017-10-27T02:56:58.375Z,49.77
2017-10-27T02:59:26.650Z,58.17
2017-10-27T03:01:55.891Z,57.15
2017-10-27T03:04:23.334Z,61.75
2017-10-27T03:06:50.795Z,59.25
2017-10-27T03:09:18.327Z,59.55
2017-10-27T03:11:46.550Z,69.70
2017-10-27T03:14:14.176Z,64.28
2017-10-27T03:16:45.586Z,60.17
2017-10-27T03:19:13.067Z,60.83
2017-10-27T03:21:40.755Z,53.33
2017-10-27T03:24:09.158Z,66.00
2017-10-27T03:26:36.622Z,59.58
2017-10-27T03:29:04.410Z,66.73
2017-10-27T03:31:35.558Z,54.87
2017-10-27T03:34:04.148Z,64.00
2017-10-27T03:36:31.684Z,64.43
2017-10-27T03:38:59.142Z,58.55
2017-10-27T03:41:26.639Z,60.10
2017-10-27T03:43:54.744Z,55.37
2017-10-27T03:46:22.199Z,49.13
2017-10-27T03:48:49.691Z,53.50
2017-10-27T03:51:18.087Z,53.30
2017-10-27T03:53:46.054Z,54.03
2017-10-27T03:56:13.538Z,51.83
2017-10-27T03:58:41.019Z,61.07
2017-10-27T04:01:08.506Z,48.90
2017-10-27T04:03:39.559Z,49.37
2017-10-27T04:06:07.391Z,55.40
2017-10-27T04:08:34.865Z,54.13
2017-10-27T04:11:02.347Z,42.43
2017-10-27T04:13:30.571Z,49.80
2017-10-27T04:15:58.076Z,46.80
2017-10-27T04:18:26.302Z,40.47
2017-10-27T04:20:53.814Z,46.88
2017-10-27T04:23:22.066Z,47.27
2017-10-27T04:25:49.534Z,43.33
2017-10-27T04:28:16.987Z,39.88
2017-10-27T04:30:44.485Z,36.30
2017-10-27T04:33:11.993Z,45.00
2017-10-27T04:35:40.114Z,37.20
2017-10-27T04:38:07.604Z,44.83
2017-10-27T04:40:35.099Z,41.77
2017-10-27T04:43:03.411Z,42.53
2017-10-27T04:45:30.863Z,47.78
2017-10-27T04:48:03.372Z,49.08
2017-10-27T04:50:31.071Z,44.03
2017-10-27T04:52:59.485Z,41.07
2017-10-27T04:55:26.979Z,50.03
2017-10-27T04:57:54.445Z,51.37
2017-10-27T05:00:21.924Z,46.47
2017-10-27T05:02:53.900Z,46.65
2017-10-27T05:05:21.419Z,45.70
2017-10-27T05:07:49.145Z,18.73
2017-10-27T05:10:16.649Z,18.63
2017-10-27T05:12:44.108Z,24.05
2017-10-27T05:15:11.598Z,16.10
2017-10-27T05:17:45.470Z,26.40
2017-10-27T05:20:19.313Z,24.65
2017-10-27T05:22:52.658Z,22.03
2017-10-27T05:25:20.232Z,24.83
2017-10-27T05:27:47.693Z,25.43
2017-10-27T05:30:15.208Z,24.87
2017-10-27T05:32:42.691Z,19.47
2017-10-27T05:35:10.704Z,24.47
2017-10-27T05:37:38.184Z,31.40
2017-10-27T05:40:05.654Z,32.95
2017-10-27T05:42:34.054Z,32.10
2017-10-27T05:45:01.543Z,35.20
2017-10-27T05:47:29.015Z,32.83
2017-10-27T05:49:56.482Z,40.40
2017-10-27T05:52:24.030Z,38.70
2017-10-27T05:54:53.216Z,22.97
2017-10-27T05:57:20.668Z,36.83
2017-10-27T05:59:48.179Z,37.60
2017-10-27T06:02:15.636Z,32.33
2017-10-27T06:04:43.084Z,26.33
2017-10-27T06:07:10.700Z,24.45
2017-10-27T06:09:38.180Z,26.87
2017-10-27T06:12:05.667Z,32.70
2017-10-27T06:14:33.120Z,34.30
2017-10-27T06:17:02.318Z,27.37
2017-10-27T06:19:29.779Z,26.53
2017-10-27T06:21:57.324Z,28.60
2017-10-27T06:24:24.851Z,21.35
2017-10-27T06:26:52.616Z,42.40
2017-10-27T06:29:20.551Z,26.15
2017-10-27T06:31:48.092Z,28.77
2017-10-27T06:34:15.611Z,24.90
2017-10-27T06:36:43.082Z,21.03
2017-10-27T06:39:10.562Z,26.50
2017-10-27T06:41:38.197Z,23.48
2017-10-27T06:44:06.076Z,21.42
2017-10-27T06:46:34.449Z,18.47
2017-10-27T06:49:01.911Z,16.10
2017-10-27T06:51:29.367Z,24.63
2017-10-27T06:53:57.020Z,16.05
2017-10-27T06:56:24.508Z,11.50
2017-10-27T06:58:51.963Z,17.33
2017-10-27T07:01:20.015Z,17.20
2017-10-27T07:03:48.003Z,15.68
2017-10-27T07:06:15.507Z,32.00
2017-10-27T07:08:42.963Z,12.37
2017-10-27T07:11:11.049Z,11.17
2017-10-27T07:13:38.539Z,15.40
2017-10-27T07:16:06.424Z,19.27
2017-10-27T07:18:33.931Z,14.20
2017-10-27T07:21:01.898Z,14.50
2017-10-27T07:23:29.356Z,14.73
2017-10-27T07:25:56.919Z,14.57
2017-10-27T07:28:25.176Z,15.00
2017-10-27T07:30:52.659Z,14.65
2017-10-27T07:33:21.601Z,12.37
2017-10-27T07:35:49.049Z,17.37
2017-10-27T07:38:16.534Z,11.97
2017-10-27T07:40:43.984Z,18.10
2017-10-27T07:43:11.747Z,15.57
2017-10-27T07:45:39.793Z,17.20
2017-10-27T07:48:07.379Z,14.00
2017-10-27T07:50:34.831Z,20.90
2017-10-27T07:53:02.303Z,9.88
2017-10-27T07:55:29.755Z,8.95
2017-10-27T07:57:57.236Z,8.30
2017-10-27T08:00:24.715Z,7.20
2017-10-27T08:02:52.173Z,5.78
2017-10-27T08:05:19.615Z,5.53
2017-10-27T08:07:52.476Z,3.95
2017-10-27T08:10:19.927Z,3.08
2017-10-27T08:12:49.847Z,6.43
2017-10-27T08:15:17.307Z,6.37
2017-10-27T08:17:44.768Z,5.28
2017-10-27T08:20:13.228Z,6.05
2017-10-27T08:22:40.695Z,4.10
2017-10-27T08:25:08.178Z,16.00
2017-10-27T08:27:36.427Z,7.07
2017-10-27T08:30:03.908Z,6.00
2017-10-27T08:32:31.355Z,3.93
2017-10-27T08:34:58.860Z,5.73
2017-10-27T08:37:27.283Z,5.36
2017-10-27T08:39:54.739Z,4.77
2017-10-27T08:42:26.291Z,4.50
2017-10-27T08:44:53.855Z,3.87
2017-10-27T08:47:22.924Z,6.93
2017-10-27T08:49:50.387Z,5.40
2017-10-27T08:52:17.893Z,6.80
2017-10-27T08:54:47.059Z,5.70
2017-10-27T08:57:14.532Z,4.67
2017-10-27T08:59:42.772Z,5.73
2017-10-27T09:02:12.313Z,6.12
2017-10-27T09:04:41.470Z,5.50
2017-10-27T09:07:13.876Z,6.90
2017-10-27T09:09:41.972Z,3.53
2017-10-27T09:12:09.422Z,5.90
2017-10-27T09:14:36.934Z,3.63
2017-10-27T09:17:04.419Z,6.10
2017-10-27T09:19:31.882Z,4.23
2017-10-27T09:21:59.347Z,4.10
2017-10-27T09:24:31.011Z,4.40
2017-10-27T09:26:58.508Z,5.20
2017-10-27T09:29:26.215Z,3.37
2017-10-27T09:31:53.856Z,3.40
2017-10-27T09:34:21.943Z,3.23
2017-10-27T09:36:49.431Z,2.20
2017-10-27T09:39:16.905Z,4.03
2017-10-27T09:41:45.056Z,10.30
2017-10-27T09:44:12.512Z,2.43
2017-10-27T09:46:39.995Z,3.80
2017-10-27T09:49:07.489Z,5.10
2017-10-27T09:51:34.939Z,3.00
2017-10-27T09:54:06.623Z,3.10
2017-10-27T09:56:34.351Z,4.82
2017-10-27T09:59:01.835Z,3.40
2017-10-27T10:01:29.291Z,2.30
2017-10-27T10:03:56.787Z,10.53
2017-10-27T10:06:24.253Z,5.57
2017-10-27T10:08:56.004Z,5.68
2017-10-27T10:11:24.662Z,3.95
2017-10-27T10:13:53.849Z,3.50
2017-10-27T10:16:21.310Z,8.65
2017-10-27T10:18:48.811Z,2.83
2017-10-27T10:21:16.350Z,9.73
2017-10-27T10:23:43.817Z,7.30
2017-10-27T10:26:14.071Z,4.78
2017-10-27T10:28:41.522Z,3.70
2017-10-27T10:31:09.215Z,4.17
2017-10-27T10:33:37.599Z,7.93
2017-10-27T10:36:05.842Z,4.07
2017-10-27T10:38:33.437Z,3.40
2017-10-27T10:41:00.924Z,5.67
2017-10-27T10:43:28.491Z,5.53
2017-10-27T10:45:56.735Z,5.52
2017-10-27T10:48:24.338Z,1.30
2017-10-27T10:50:51.790Z,6.60
2017-10-27T10:53:19.279Z,3.87
2017-10-27T10:55:46.740Z,8.50
2017-10-27T10:58:15.308Z,2.00
2017-10-27T11:00:42.807Z,2.57
2017-10-27T11:03:10.763Z,5.84
2017-10-27T11:05:38.209Z,5.07
2017-10-27T11:08:05.670Z,4.67
2017-10-27T11:10:36.221Z,4.97
2017-10-27T11:13:03.730Z,4.57
2017-10-27T11:15:31.185Z,2.43
2017-10-27T11:17:58.733Z,2.30
2017-10-27T11:20:26.167Z,1.27
2017-10-27T11:22:55.369Z,2.55
2017-10-27T11:25:22.815Z,4.53
2017-10-27T11:27:50.276Z,3.20
2017-10-27T11:30:17.766Z,2.40
2017-10-27T11:32:45.295Z,4.40
2017-10-27T11:35:13.377Z,3.10
2017-10-27T11:37:40.963Z,3.87
2017-10-27T11:40:11.731Z,3.03
2017-10-27T11:42:39.174Z,2.70
2017-10-27T11:45:06.747Z,2.80
2017-10-27T11:47:34.243Z,3.57
2017-10-27T11:50:01.708Z,2.50
2017-10-27T11:52:29.164Z,3.23
2017-10-27T11:55:02.411Z,2.50
2017-10-27T11:57:30.082Z,1.62
2017-10-27T11:59:57.871Z,2.05
2017-10-27T12:02:25.618Z,1.40
2017-10-27T12:04:53.162Z,1.17
2017-10-27T12:07:20.627Z,3.70
2017-10-27T12:09:48.076Z,1.20
2017-10-27T12:12:15.551Z,7.23
2017-10-27T12:14:43.011Z,4.00
2017-10-27T12:17:10.470Z,4.07
2017-10-27T12:19:38.117Z,1.30
2017-10-27T12:22:06.219Z,2.75
2017-10-27T12:24:33.833Z,21.80
2017-10-27T12:27:05.595Z,4.23
2017-10-27T12:29:33.564Z,3.90
2017-10-27T12:32:01.939Z,3.83
2017-10-27T12:34:29.400Z,1.67
2017-10-27T12:36:56.882Z,1.90
2017-10-27T12:39:24.338Z,2.03
2017-10-27T12:41:51.803Z,4.20
2017-10-27T12:44:20.172Z,3.33
2017-10-27T12:46:47.632Z,6.20
2017-10-27T12:49:15.106Z,1.73
2017-10-27T12:51:42.596Z,4.70
2017-10-27T12:54:10.076Z,4.40
2017-10-27T12:56:37.567Z,7.30
2017-10-27T12:59:05.792Z,1.40
2017-10-27T13:01:34.043Z,2.67
2017-10-27T13:04:01.520Z,1.87
2017-10-27T13:06:28.979Z,1.75
2017-10-27T13:08:56.567Z,4.55
2017-10-27T13:11:28.380Z,3.58
2017-10-27T13:13:55.838Z,0.87
2017-10-27T13:16:24.479Z,2.53
2017-10-27T13:18:51.960Z,5.90
2017-10-27T13:21:19.735Z,5.30
2017-10-27T13:23:48.738Z,2.52
2017-10-27T13:26:16.252Z,1.43
2017-10-27T13:28:43.707Z,1.63
2017-10-27T13:31:11.209Z,0.83
2017-10-27T13:33:38.826Z,4.13
2017-10-27T13:36:06.999Z,3.47
2017-10-27T13:38:34.482Z,1.58
2017-10-27T13:41:01.946Z,2.03
2017-10-27T13:43:33.223Z,5.30
2017-10-27T13:46:00.718Z,1.53
2017-10-27T13:48:28.198Z,0.93
2017-10-27T13:50:57.183Z,1.34
2017-10-27T13:53:24.675Z,4.93
2017-10-27T13:55:52.181Z,3.33
2017-10-27T13:58:19.630Z,2.17
2017-10-27T14:00:47.119Z,3.27
2017-10-27T14:03:16.295Z,1.65
2017-10-27T14:05:43.953Z,0.77
2017-10-27T14:08:11.439Z,1.90
2017-10-27T14:13:14.016Z,3.20
2017-10-27T14:15:41.533Z,2.00
2017-10-27T14:18:09.027Z,1.23
2017-10-27T14:20:36.519Z,4.00
2017-10-27T14:23:03.971Z,1.48
2017-10-27T14:25:31.547Z,3.23
2017-10-27T14:28:03.164Z,5.53
2017-10-27T14:30:31.554Z,0.60
2017-10-27T14:32:59.361Z,1.93
2017-10-27T14:35:26.887Z,3.72
2017-10-27T14:37:55.140Z,6.40
2017-10-27T14:40:22.651Z,2.57
2017-10-27T14:42:50.109Z,1.83
2017-10-27T14:45:17.656Z,1.00
2017-10-27T14:47:45.116Z,5.13
2017-10-27T14:50:12.566Z,1.60
2017-10-27T14:52:40.046Z,1.63
2017-10-27T14:55:08.484Z,2.65
2017-10-27T14:57:35.945Z,3.50
2017-10-27T15:00:03.431Z,3.00
2017-10-27T15:02:30.887Z,0.70
2017-10-27T15:04:58.347Z,2.13
2017-10-27T15:07:25.835Z,1.87
2017-10-27T15:09:53.291Z,3.40
2017-10-27T15:12:21.183Z,2.57
2017-10-27T15:14:49.419Z,1.83
2017-10-27T15:17:16.955Z,1.45
2017-10-27T15:19:44.418Z,2.03
2017-10-27T15:22:11.891Z,6.00
2017-10-27T15:24:39.382Z,2.70
2017-10-27T15:27:07.637Z,2.67
2017-10-27T15:29:36.570Z,6.33
2017-10-27T15:32:04.102Z,1.40
2017-10-27T15:34:31.819Z,3.70
2017-10-27T15:36:59.318Z,8.47
2017-10-27T15:39:26.824Z,2.65
2017-10-27T15:41:54.302Z,2.33
2017-10-27T15:44:25.965Z,7.40
2017-10-27T15:46:53.440Z,2.90
2017-10-27T15:49:20.938Z,3.28
2017-10-27T15:51:48.442Z,3.27
2017-10-27T15:54:16.027Z,3.63
2017-10-27T15:56:43.486Z,5.35
2017-10-27T15:59:11.767Z,6.07
2017-10-27T16:01:39.323Z,2.97
2017-10-27T16:04:06.776Z,5.63
2017-10-27T16:06:34.262Z,4.22
2017-10-27T16:09:01.750Z,2.70
2017-10-27T16:11:29.563Z,2.40
2017-10-27T16:13:57.027Z,2.67
2017-10-27T16:16:24.887Z,5.37
2017-10-27T16:18:52.599Z,5.57
2017-10-27T16:21:20.118Z,3.87
2017-10-27T16:23:47.594Z,2.20
2017-10-27T16:26:15.083Z,1.92
2017-10-27T16:28:42.571Z,4.55
2017-10-27T16:31:11.735Z,3.10
2017-10-27T16:33:39.214Z,2.05
2017-10-27T16:36:06.879Z,9.70
2017-10-27T16:38:34.359Z,3.30
2017-10-27T16:41:02.590Z,3.80
2017-10-27T16:43:30.923Z,2.75
2017-10-27T16:45:59.163Z,4.80
2017-10-27T16:48:28.372Z,2.55
2017-10-27T16:50:55.932Z,6.90
2017-10-27T16:53:23.448Z,4.60
2017-10-27T16:55:50.896Z,4.17
2017-10-27T16:58:18.402Z,3.17
2017-10-27T17:00:50.140Z,4.80
2017-10-27T17:03:17.594Z,4.78
2017-10-27T17:05:45.080Z,4.87
2017-10-27T17:08:12.535Z,6.10
2017-10-27T17:10:40.043Z,2.22
2017-10-27T17:13:07.526Z,4.03
2017-10-27T17:15:38.796Z,4.85
2017-10-27T17:18:06.275Z,3.07
2017-10-27T17:20:34.047Z,5.43
2017-10-27T17:23:01.527Z,6.23
2017-10-27T17:25:29.231Z,3.97
2017-10-27T17:27:56.686Z,3.27
2017-10-27T17:30:31.598Z,2.70
2017-10-27T17:33:00.739Z,1.70
2017-10-27T17:35:28.210Z,8.83
2017-10-27T17:37:55.650Z,5.45
2017-10-27T17:40:24.114Z,3.53
2017-10-27T17:42:53.104Z,10.23
2017-10-27T17:45:20.598Z,2.60
2017-10-27T17:47:48.692Z,6.32
2017-10-27T17:50:16.152Z,4.27
2017-10-27T17:52:43.632Z,2.30
2017-10-27T17:55:11.087Z,6.60
2017-10-27T17:57:38.779Z,4.07
2017-10-27T18:00:06.227Z,2.87
2017-10-27T18:02:33.716Z,4.07
2017-10-27T18:05:02.891Z,5.03
2017-10-27T18:07:30.358Z,7.03
2017-10-27T18:09:58.624Z,2.97
2017-10-27T18:12:26.099Z,6.97
2017-10-27T18:14:54.323Z,3.00
2017-10-27T18:17:22.114Z,1.83
2017-10-27T18:19:49.575Z,12.80
2017-10-27T18:22:17.049Z,8.43
2017-10-27T18:24:44.522Z,4.27
2017-10-27T18:27:12.127Z,5.03
2017-10-27T18:29:40.543Z,4.63
2017-10-27T18:32:08.758Z,6.05
2017-10-27T18:34:36.215Z,4.13
2017-10-27T18:37:03.947Z,4.27
2017-10-27T18:39:32.249Z,9.68
2017-10-27T18:42:00.629Z,2.80
2017-10-27T18:44:29.315Z,4.60
2017-10-27T18:47:01.117Z,3.70
2017-10-27T18:49:28.599Z,5.03
2017-10-27T18:51:56.614Z,8.57
2017-10-27T18:54:25.007Z,7.28
2017-10-27T18:56:52.808Z,4.87
2017-10-27T18:59:20.916Z,8.57
2017-10-27T19:01:48.373Z,3.70
2017-10-27T19:04:16.056Z,7.32
2017-10-27T19:06:45.467Z,8.85
2017-10-27T19:09:12.927Z,7.45
2017-10-27T19:11:40.390Z,10.00
2017-10-27T19:14:08.764Z,5.20
2017-10-27T19:16:36.251Z,4.97
2017-10-27T19:19:04.480Z,10.53
2017-10-27T19:21:32.434Z,6.80
2017-10-27T19:24:00.302Z,10.73
2017-10-27T19:26:27.852Z,4.80
2017-10-27T19:28:55.310Z,7.07
2017-10-27T19:31:22.779Z,3.83
2017-10-27T19:33:53.473Z,6.33
2017-10-27T19:36:20.963Z,4.40
2017-10-27T19:38:48.747Z,5.83
2017-10-27T19:41:17.761Z,3.85
2017-10-27T19:43:45.226Z,4.30
2017-10-27T19:46:12.686Z,11.25
2017-10-27T19:48:43.847Z,3.87
2017-10-27T19:51:12.080Z,8.55
2017-10-27T19:53:39.543Z,8.83
2017-10-27T19:56:07.383Z,8.43
2017-10-27T19:58:35.126Z,5.78
2017-10-27T20:01:02.607Z,3.97
2017-10-27T20:03:34.418Z,3.30
2017-10-27T20:06:01.905Z,7.93
2017-10-27T20:08:29.484Z,2.50
2017-10-27T20:10:56.992Z,3.75
2017-10-27T20:13:25.275Z,12.63
2017-10-27T20:15:53.533Z,10.23
2017-10-27T20:18:24.225Z,4.23
2017-10-27T20:20:51.849Z,7.50
2017-10-27T20:23:19.364Z,6.87
2017-10-27T20:25:46.811Z,7.10
2017-10-27T20:28:14.278Z,6.33
2017-10-27T20:30:41.765Z,5.65
2017-10-27T20:33:12.803Z,10.55
2017-10-27T20:35:40.522Z,12.20
2017-10-27T20:38:07.959Z,5.13
2017-10-27T20:40:35.500Z,9.32
2017-10-27T20:43:03.155Z,7.40
2017-10-27T20:45:30.600Z,7.63
2017-10-27T20:47:59.753Z,4.70
2017-10-27T20:50:27.315Z,7.77
2017-10-27T20:52:54.802Z,9.67
2017-10-27T20:55:22.251Z,6.47
2017-10-27T20:57:49.708Z,4.50
2017-10-27T21:00:17.518Z,6.20
2017-10-27T21:02:45.067Z,5.40
2017-10-27T21:05:13.019Z,6.87
2017-10-27T21:07:41.248Z,11.38
2017-10-27T21:10:08.974Z,7.83
2017-10-27T21:12:36.423Z,7.50
2017-10-27T21:15:03.899Z,3.40
2017-10-27T21:17:31.654Z,9.18
2017-10-27T21:20:03.196Z,10.30
2017-10-27T21:22:30.674Z,6.80
2017-10-27T21:24:58.164Z,7.10
2017-10-27T21:27:25.636Z,6.87
2017-10-27T21:29:53.135Z,9.37
2017-10-27T21:32:22.291Z,6.80
2017-10-27T21:34:49.756Z,8.48
2017-10-27T21:37:17.203Z,14.45
2017-10-27T21:39:44.676Z,9.53
2017-10-27T21:42:12.144Z,9.40
2017-10-27T21:44:39.630Z,8.03
2017-10-27T21:47:07.119Z,8.60
2017-10-27T21:49:38.405Z,10.30
2017-10-27T21:52:06.763Z,9.53
2017-10-27T21:54:34.216Z,8.93
2017-10-27T21:57:01.699Z,8.10
2017-10-27T21:59:30.068Z,9.75
2017-10-27T22:01:59.059Z,6.57
2017-10-27T22:04:27.063Z,11.80
2017-10-27T22:06:54.646Z,6.88
2017-10-27T22:09:22.147Z,6.55
2017-10-27T22:11:49.625Z,8.37
2017-10-27T22:14:17.843Z,7.75
2017-10-27T22:16:45.340Z,8.17
2017-10-27T22:19:12.782Z,8.27
2017-10-27T22:21:40.274Z,6.00
2017-10-27T22:24:08.638Z,11.57
2017-10-27T22:26:36.131Z,6.80
2017-10-27T22:29:03.604Z,10.77
2017-10-27T22:31:31.087Z,5.43
2017-10-27T22:33:58.977Z,8.47
2017-10-27T22:36:27.452Z,13.62
2017-10-27T22:38:56.022Z,13.50
2017-10-27T22:41:23.496Z,11.57
2017-10-27T22:43:50.935Z,12.10
2017-10-27T22:46:18.494Z,10.63
2017-10-27T22:48:46.876Z,13.85
2017-10-27T22:51:17.402Z,14.80
2017-10-27T22:53:44.855Z,9.03
2017-10-27T22:56:12.311Z,13.43
2017-10-27T22:58:39.792Z,10.25
2017-10-27T23:01:07.235Z,9.83
2017-10-27T23:03:34.723Z,19.43
2017-10-27T23:06:06.350Z,13.35
2017-10-27T23:08:34.599Z,11.53
2017-10-27T23:11:02.073Z,14.85
2017-10-27T23:13:29.528Z,13.27
2017-10-27T23:15:57.020Z,16.73
2017-10-27T23:18:24.471Z,15.30
2017-10-27T23:20:51.934Z,10.37
2017-10-27T23:23:20.358Z,12.48
2017-10-27T23:25:48.590Z,10.80
2017-10-27T23:28:16.055Z,15.27
2017-10-27T23:30:45.243Z,10.23
2017-10-27T23:33:12.743Z,15.93
2017-10-27T23:35:40.303Z,10.63
2017-10-27T23:38:07.793Z,13.93
2017-10-27T23:40:35.475Z,16.90
2017-10-27T23:43:03.698Z,19.92
2017-10-27T23:45:31.144Z,16.23
2017-10-27T23:47:58.635Z,18.00
2017-10-27T23:50:26.095Z,11.30
2017-10-27T23:52:53.763Z,10.97
2017-10-27T23:55:21.238Z,13.33
2017-10-27T23:57:48.714Z,12.50
